Data for 02/21/2010

Time Sea-Level Adjusted Pressure Absolute Pressure Temperature Relative Humidity Dew Point   
(mb) (inHg) (mb) (inHg) (C) (F) (%) (C) (F)
00:05 1016 30 845 24.95 -9.1 15.7 78 -12.3 9.9
00:10 1016 30 845 24.95 -9 15.7 78 -12.3 9.9
00:15 1016 30 845 24.95 -9 15.9 77 -12.2 10
00:20 1016 30 845 24.95 -9 15.8 77 -12.3 9.9
00:25 1016 30 845 24.95 -9 15.8 77 -12.3 9.8
00:30 1016 30 845 24.95 -8.9 15.9 77 -12.3 9.9
00:35 1016 30 845 24.95 -9 15.8 77 -12.2 10
00:40 1016 30 845 24.95 -9.2 15.5 76 -12.6 9.2
00:45 1016 30 845 24.95 -10.4 13.3 81 -13.1 8.4
00:50 1016 30 845 24.95 -10.9 12.3 83 -13.3 8
00:55 1016 30 845 24.95 -11 12.3 82 -13.4 7.8
01:00 1016 30 845 24.95 -11.1 12 83 -13.4 7.8
01:05 1016 30 845 24.95 -11.1 12 84 -13.3 8
01:10 1016 30 845 24.95 -10.7 12.7 83 -13.1 8.3
01:15 1016 30 845 24.95 -10.1 13.7 83 -12.6 9.4
01:20 1016 30 845 24.95 -9.5 14.8 81 -12.3 9.9
01:25 1016 30 845 24.95 -9.4 15.2 80 -12.2 10
01:30 1016 30 845 24.95 -9.2 15.4 79 -12.1 10.2
01:35 1016 30 845 24.95 -9.2 15.4 80 -12.1 10.2
01:40 1016 30 845 24.95 -9.3 15.3 80 -12.1 10.1
01:45 1016 30 845 24.95 -9.3 15.2 77 -12.6 9.2
01:50 1016 30 845 24.95 -9.8 14.3 82 -12.4 9.6
01:55 1016 30 845 24.95 -9.7 14.6 79 -12.6 9.3
02:00 1016 30 845 24.95 -10.2 13.7 79 -13.1 8.4
02:05 1016 30 845 24.95 -10.9 12.4 81 -13.5 7.8
02:10 1016 30 845 24.95 -11.2 11.9 83 -13.6 7.6
02:15 1016 30 845 24.95 -11.4 11.4 84 -13.6 7.5
02:20 1016 30 845 24.95 -11.2 11.9 85 -13.3 8.1
02:25 1016 30 845 24.95 -10.8 12.6 82 -13.3 8.1
02:30 1016 30 845 24.95 -10.8 12.6 82 -13.3 8
02:35 1016 30 845 24.95 -11 12.2 82 -13.5 7.7
02:40 1016 30 845 24.95 -11 12.2 80 -13.8 7.2
02:45 1016 30 845 24.95 -10.7 12.8 79 -13.7 7.4
02:50 1016 30 845 24.95 -10.6 12.8 80 -13.4 7.8
02:55 1016 30 845 24.95 -10.6 13 79 -13.6 7.5
03:00 1016 30 845 24.95 -10.7 12.8 79 -13.6 7.5
03:05 1016 30 845 24.95 -10.9 12.5 79 -13.7 7.3
03:10 1016 30 845 24.95 -10.9 12.3 81 -13.6 7.5
03:15 1016 30 845 24.95 -10.6 12.9 79 -13.6 7.5
03:20 1016 30 845 24.95 -10.5 13 80 -13.4 7.9
03:25 1016 30 845 24.95 -10.7 12.8 81 -13.3 8
03:30 1016 30 845 24.95 -10.7 12.8 80 -13.5 7.8
03:35 1016 30 845 24.95 -10.6 13 80 -13.4 7.9
03:40 1016 30 845 24.95 -10.5 13.1 80 -13.4 7.9
03:45 1016 30 845 24.95 -10.5 13 80 -13.4 7.9
03:50 1016 30 845 24.95 -10.4 13.2 79 -13.4 7.8
03:55 1016 30 845 24.95 -10.5 13.1 79 -13.4 7.8
04:00 1016 30 845 24.95 -10.7 12.8 80 -13.5 7.8
04:05 1016 30 845 24.95 -10.7 12.7 81 -13.4 7.8
04:10 1016 30 845 24.95 -10.8 12.7 81 -13.5 7.7
04:15 1016 30 845 24.95 -10.8 12.5 81 -13.4 7.8
04:20 1016 30 845 24.95 -10.9 12.5 81 -13.6 7.6
04:25 1016 30 845 24.95 -10.9 12.5 81 -13.5 7.7
04:30 1016 30 845 24.95 -10.9 12.3 82 -13.5 7.7
04:35 1016 30 845 24.95 -11 12.2 81 -13.6 7.5
04:40 1016 30 845 24.95 -11.1 12 82 -13.6 7.5
04:45 1016 30 845 24.95 -11.2 11.8 83 -13.6 7.5
04:50 1016 30 845 24.95 -11.3 11.7 83 -13.6 7.5
04:55 1016 30 845 24.95 -11.3 11.7 83 -13.6 7.6
05:00 1016 30 845 24.95 -11.4 11.5 84 -13.6 7.5
05:05 1016 30 845 24.95 -11.4 11.5 84 -13.7 7.4
05:10 1016 30 845 24.95 -11.5 11.4 83 -13.7 7.3
05:15 1016 30 845 24.95 -11.5 11.3 84 -13.7 7.3
05:20 1016 30 845 24.95 -11.6 11.2 84 -13.8 7.2
05:25 1016 30 845 24.95 -11.6 11.2 83 -13.9 7
05:30 1016 30 845 24.95 -11.6 11.1 82 -14.1 6.6
05:35 1016 30 845 24.95 -11.6 11.1 82 -14.1 6.6
05:40 1016 30 845 24.95 -11.8 10.9 82 -14.2 6.4
05:45 1016 30 845 24.95 -11.9 10.7 82 -14.4 6.1
05:50 1016 30 845 24.95 -11.9 10.6 81 -14.6 5.8
05:55 1016 30 845 24.95 -11.9 10.6 80 -14.7 5.5
06:00 1016 30 845 24.95 -11.9 10.5 80 -14.7 5.5
06:05 1016 30 845 24.95 -11.9 10.6 80 -14.7 5.6
06:10 1016 30 845 24.95 -12.2 10 82 -14.7 5.5
06:15 1016 30 845 24.95 -12.4 9.7 82 -14.8 5.3
06:20 1016 30 845 24.95 -12.3 9.8 82 -14.8 5.3
06:25 1016 30 845 24.95 -12.5 9.6 83 -14.8 5.4
06:30 1016 30 845 24.95 -12.5 9.5 83 -14.8 5.3
06:35 1016 30 845 24.95 -12.6 9.4 84 -14.7 5.5
06:40 1016 30 845 24.95 -12.6 9.3 84 -14.7 5.5
06:45 1016 30 845 24.95 -12.6 9.4 85 -14.6 5.7
06:50 1016 30 845 24.95 -12.7 9.2 83 -14.9 5.1
06:55 1016 30 845 24.95 -12.8 9 79 -15.7 3.7
07:00 1016 30 845 24.95 -13.2 8.3 80 -15.9 3.5
07:05 1016 30 845 24.95 -13.2 8.3 79 -16 3.2
07:10 1016 30 845 24.95 -13.2 8.2 79 -16 3.1
07:15 1016 30 845 24.95 -13.2 8.2 78 -16.3 2.7
07:20 1016 30 845 24.95 -13.3 8.1 79 -16.3 2.7
07:25 1016 30 845 24.95 -13.2 8.3 81 -15.8 3.5
07:30 1016 30 845 24.95 -12.9 8.8 81 -15.6 4
07:35 1016 30 845 24.95 -12.6 9.4 80 -15.3 4.4
07:40 1016 30 845 24.95 -12.4 9.6 80 -15.2 4.7
07:45 1016 30 845 24.95 -12.4 9.7 78 -15.6 4
07:50 1016 30 846 24.98 -12.7 9.1 80 -15.6 4
07:55 1016 30 846 24.98 -12.6 9.3 78 -15.7 3.7
08:00 1016 30 846 24.98 -12.8 9 79 -15.7 3.7
08:05 1016 30 846 24.98 -12.7 9.1 78 -15.7 3.7
08:10 1016 30 846 24.98 -12.6 9.4 77 -15.8 3.5
08:15 1016 30 846 24.98 -12.5 9.5 76 -15.8 3.5
08:20 1017 30.03 846 24.98 -12.3 9.9 77 -15.5 4
08:25 1016 30 846 24.98 -12 10.3 76 -15.5 4.2
08:30 1016 30 846 24.98 -11.9 10.6 77 -15.2 4.6
08:35 1016 30 846 24.98 -11.8 10.8 74 -15.4 4.2
08:40 1017 30.03 846 24.98 -12 10.3 76 -15.5 4.2
08:45 1017 30.03 846 24.98 -11.9 10.6 76 -15.4 4.3
08:50 1017 30.03 846 24.98 -11.9 10.5 77 -15.1 4.8
08:55 1017 30.03 846 24.98 -11.7 10.9 77 -15.1 4.9
09:00 1017 30.03 846 24.98 -11.5 11.3 76 -15 5
09:05 1017 30.03 846 24.98 -11.6 11.2 77 -14.9 5.2
09:10 1017 30.03 846 24.98 -11.6 11.1 78 -14.8 5.4
09:15 1017 30.03 846 24.98 -11.3 11.6 76 -14.8 5.3
09:20 1017 30.03 846 24.98 -11.2 11.9 75 -14.8 5.4
09:25 1017 30.03 846 24.98 -11.3 11.6 77 -14.6 5.8
09:30 1017 30.03 846 24.98 -11.3 11.7 79 -14.3 6.2
09:35 1017 30.03 846 24.98 -11 12.3 79 -14 6.8
09:40 1017 30.03 846 24.98 -10.5 13.1 76 -14 6.8
09:45 1017 30.03 846 24.98 -10.7 12.8 75 -14.3 6.2
09:50 1017 30.03 846 24.98 -10.5 13.1 76 -13.9 6.9
09:55 1017 30.03 846 24.98 -10.3 13.5 76 -13.8 7.2
10:00 1017 30.03 846 24.98 -10.2 13.7 74 -13.9 7
10:05 1017 30.03 846 24.98 -10.2 13.7 73 -14.1 6.6
10:10 1017 30.03 846 24.98 -10.2 13.7 73 -14.1 6.6
10:15 1017 30.03 846 24.98 -10 13.9 73 -14.1 6.7
10:20 1017 30.03 846 24.98 -9.8 14.4 74 -13.7 7.4
10:25 1017 30.03 846 24.98 -9.2 15.4 71 -13.6 7.6
10:30 1017 30.03 846 24.98 -8.7 16.3 70 -13.2 8.2
10:35 1017 30.03 846 24.98 -8.4 16.8 68 -13.3 8.1
10:40 1017 30.03 846 24.98 -8.4 16.9 67 -13.4 7.9
10:45 1017 30.03 846 24.98 -8.8 16.1 71 -13.2 8.2
10:50 1017 30.03 846 24.98 -8.5 16.6 69 -13.3 8.1
10:55 1017 30.03 846 24.98 -8.3 17.1 69 -13 8.6
11:00 1017 30.03 846 24.98 -8.1 17.4 67 -13.1 8.3
11:05 1017 30.03 846 24.98 -8.1 17.4 66 -13.4 8
11:10 1017 30.03 846 24.98 -8.3 17.1 68 -13.3 8.1
11:15 1017 30.03 846 24.98 -8.5 16.7 71 -12.9 8.7
11:20 1017 30.03 846 24.98 -8.2 17.3 69 -13 8.7
11:25 1017 30.03 846 24.98 -8.7 16.3 73 -12.7 9.1
11:30 1017 30.03 846 24.98 -8.6 16.6 71 -12.9 8.8
11:35 1017 30.03 846 24.98 -8.6 16.6 71 -12.9 8.7
11:40 1017 30.03 846 24.98 -8.1 17.3 69 -12.9 8.8
11:45 1017 30.03 846 24.98 -8.1 17.5 69 -12.9 8.8
11:50 1017 30.03 846 24.98 -7.7 18.1 67 -12.9 8.8
11:55 1017 30.03 846 24.98 -6.9 19.5 64 -12.7 9.2
12:00 1017 30.03 846 24.98 -6.6 20.2 64 -12.3 9.8
12:05 1017 30.03 846 24.98 -6.6 20.1 65 -12.1 10.2
12:10 1017 30.03 846 24.98 -6.5 20.3 62 -12.7 9.2
12:15 1017 30.03 846 24.98 -6.5 20.2 63 -12.4 9.7
12:20 1016 30 846 24.98 -6.3 20.6 63 -12.4 9.7
12:25 1016 30 846 24.98 -6.1 21.1 61 -12.4 9.7
12:30 1016 30 846 24.98 -6.6 20.1 63 -12.5 9.5
12:35 1016 30 846 24.98 -7.1 19.2 63 -13 8.7
12:40 1016 30 846 24.98 -6.8 19.8 59 -13.6 7.5
12:45 1016 30 845 24.95 -5.8 21.6 57 -13 8.6
12:50 1016 30 845 24.95 -5.1 22.8 53 -13.3 8
12:55 1016 30 845 24.95 -5.4 22.4 56 -12.9 8.9
13:00 1016 30 845 24.95 -6.1 20.9 56 -13.5 7.7
13:05 1016 30 845 24.95 -5.9 21.4 57 -13.1 8.4
13:10 1016 30 845 24.95 -5.8 21.6 56 -13.2 8.3
13:15 1016 30 845 24.95 -5.7 21.7 56 -13.3 8.1
13:20 1016 30 845 24.95 -5.8 21.5 56 -13.3 8
13:25 1016 30 845 24.95 -5.3 22.4 51 -13.9 7.1
13:30 1016 30 845 24.95 -6 21.2 56 -13.5 7.7
13:35 1016 30 845 24.95 -5.9 21.4 56 -13.4 7.9
13:40 1016 30 845 24.95 -5.5 22.1 52 -13.8 7.2
13:45 1016 30 845 24.95 -5.6 22 54 -13.5 7.6
13:50 1016 30 845 24.95 -6.3 20.6 56 -13.6 7.5
13:55 1016 30 845 24.95 -5.7 21.8 55 -13.4 7.8
14:00 1016 30 845 24.95 -5.1 22.9 50 -13.9 7.1
14:05 1016 30 845 24.95 -5 23.1 51 -13.7 7.3
14:10 1016 30 845 24.95 -5.5 22.1 53 -13.7 7.3
14:15 1016 30 845 24.95 -5.3 22.4 51 -13.9 7
14:20 1016 30 845 24.95 -4.7 23.6 50 -13.6 7.6
14:25 1016 30 845 24.95 -4.8 23.4 51 -13.6 7.6
14:30 1016 30 845 24.95 -4.7 23.5 49 -13.9 7
14:35 1016 30 845 24.95 -4.6 23.7 49 -13.7 7.3
14:40 1016 30 845 24.95 -4.4 24.1 48 -13.9 7
14:45 1016 30 845 24.95 -4.2 24.4 47 -13.8 7.1
14:50 1016 30 845 24.95 -4.7 23.5 50 -13.6 7.4
14:55 1016 30 845 24.95 -5.2 22.6 50 -14.2 6.4
15:00 1016 30 845 24.95 -4.9 23.1 49 -14.1 6.6
15:05 1016 30 845 24.95 -4.3 24.2 46 -14.3 6.3
15:10 1016 30 845 24.95 -4.7 23.6 49 -13.7 7.3
15:15 1016 30 845 24.95 -4.9 23.2 48 -14.3 6.2
15:20 1016 30 845 24.95 -5.1 22.8 49 -14.3 6.3
15:25 1016 30 845 24.95 -5.4 22.2 50 -14.2 6.4
15:30 1016 30 845 24.95 -5.7 21.8 53 -13.9 7.1
15:35 1016 30 845 24.95 -5.8 21.6 52 -14.2 6.5
15:40 1016 30 845 24.95 -5.4 22.2 51 -14.1 6.6
15:45 1016 30 845 24.95 -5.5 22 52 -14 6.8
15:50 1016 30 845 24.95 -5.4 22.3 50 -14.1 6.5
15:55 1016 30 845 24.95 -5.1 22.8 50 -14 6.8
16:00 1016 30 845 24.95 -5.4 22.3 52 -13.7 7.3
16:05 1016 30 845 24.95 -6.5 20.3 55 -14.1 6.6
16:10 1016 30 845 24.95 -7 19.4 54 -14.8 5.4
16:15 1016 30 845 24.95 -7.3 18.8 57 -14.5 5.9
16:20 1016 30 845 24.95 -7.4 18.7 56 -14.8 5.4
16:25 1016 30 845 24.95 -6.9 19.6 56 -14.3 6.3
16:30 1016 30 845 24.95 -7 19.4 56 -14.4 6
16:35 1016 30 845 24.95 -6.4 20.4 53 -14.6 5.8
16:40 1016 30 845 24.95 -6.2 20.9 53 -14.3 6.3
16:45 1016 30 845 24.95 -5.8 21.5 52 -14.1 6.6
16:50 1016 30 845 24.95 -5.8 21.5 51 -14.3 6.2
16:55 1016 30 845 24.95 -6.2 20.9 54 -14.1 6.6
17:00 1016 30 845 24.95 -6.1 21.1 53 -14.1 6.6
17:05 1016 30 845 24.95 -6.2 20.9 53 -14.3 6.3
17:10 1016 30 845 24.95 -6.1 21 53 -14.2 6.4
17:15 1016 30 845 24.95 -6.1 21 54 -14.1 6.6
17:20 1016 30 845 24.95 -6.2 20.8 54 -14.1 6.7
17:25 1016 30 845 24.95 -6.3 20.6 55 -14 6.8
17:30 1016 30 845 24.95 -6.9 19.5 57 -14.1 6.7
17:35 1016 30 845 24.95 -7.7 18.2 60 -14.2 6.4
17:40 1016 30 845 24.95 -7.7 18.2 59 -14.3 6.2
17:45 1016 30 845 24.95 -7.9 17.7 61 -14.2 6.5
17:50 1016 30 845 24.95 -8 17.5 61 -14.3 6.3
17:55 1016 30 845 24.95 -8.4 16.9 62 -14.4 6.1
18:00 1016 30 845 24.95 -8.7 16.4 64 -14.3 6.2
18:05 1016 30 845 24.95 -8.9 15.9 66 -14.3 6.3
18:10 1016 30 845 24.95 -9 15.8 65 -14.3 6.2
18:15 1016 30 845 24.95 -9.3 15.2 67 -14.4 6.1
18:20 1016 30 845 24.95 -9.6 14.8 68 -14.5 5.9
18:25 1016 30 845 24.95 -9.6 14.7 68 -14.5 5.8
18:30 1016 30 845 24.95 -9.7 14.6 67 -14.6 5.6
18:35 1016 30 845 24.95 -9.8 14.3 68 -14.7 5.6
18:40 1016 30 845 24.95 -9.8 14.4 69 -14.4 6
18:45 1016 30 845 24.95 -10.2 13.7 70 -14.6 5.6
18:50 1016 30 845 24.95 -10.5 13 71 -14.8 5.3
18:55 1016 30 845 24.95 -10.8 12.7 71 -15.1 4.8
19:00 1016 30 845 24.95 -11.2 11.9 72 -15.3 4.5
19:05 1016 30 845 24.95 -11.5 11.3 73 -15.4 4.3
19:10 1016 30 845 24.95 -11.7 11 74 -15.3 4.4
19:15 1016 30 845 24.95 -11.5 11.3 74 -15.3 4.5
19:20 1016 30 845 24.95 -11.3 11.6 73 -15.3 4.5
19:25 1016 30 845 24.95 -11.6 11 74 -15.4 4.2
19:30 1016 30 845 24.95 -11.9 10.5 75 -15.6 4
19:35 1016 30 845 24.95 -11.9 10.7 75 -15.5 4.2
19:40 1016 30 845 24.95 -12 10.4 75 -15.5 4
19:45 1016 30 845 24.95 -12.2 10 76 -15.6 3.9
19:50 1016 30 845 24.95 -12.3 9.8 77 -15.6 3.9
19:55 1016 30 845 24.95 -12.3 9.8 77 -15.5 4
20:00 1016 30 845 24.95 -12.3 9.8 77 -15.6 3.9
20:05 1016 30 845 24.95 -12.5 9.5 77 -15.7 3.7
20:10 1016 30 845 24.95 -12.6 9.3 78 -15.8 3.6
20:15 1016 30 845 24.95 -12.8 9 78 -15.9 3.4
20:20 1016 30 845 24.95 -12.8 8.9 78 -15.8 3.5
20:25 1016 30 845 24.95 -12.6 9.4 78 -15.7 3.8
20:30 1016 30 845 24.95 -12.2 10 77 -15.5 4.1
20:35 1016 30 845 24.95 -11.8 10.7 75 -15.4 4.2
20:40 1016 30 845 24.95 -11.6 11.1 74 -15.3 4.4
20:45 1016 30 845 24.95 -11.5 11.4 74 -15.3 4.5
20:50 1016 30 845 24.95 -11.4 11.5 73 -15.3 4.4
20:55 1016 30 845 24.95 -11.8 10.8 72 -15.8 3.6
21:00 1016 30 845 24.95 -12.9 8.8 78 -16 3.2
21:05 1016 30 845 24.95 -12.7 9.1 78 -15.8 3.5
21:10 1016 30 845 24.95 -12.7 9.2 76 -16 3.2
21:15 1016 30 845 24.95 -12.6 9.3 77 -15.8 3.5
21:20 1016 30 845 24.95 -12.6 9.4 77 -15.8 3.6
21:25 1016 30 845 24.95 -12.7 9.2 79 -15.6 3.9
21:30 1016 30 845 24.95 -12.6 9.3 76 -16 3.1
21:35 1016 30 845 24.95 -13 8.6 78 -16 3.1
21:40 1016 30 845 24.95 -12.8 8.9 76 -16.2 2.9
21:45 1016 30 845 24.95 -13.2 8.2 78 -16.3 2.6
21:50 1016 30 845 24.95 -13.5 7.8 79 -16.4 2.5
21:55 1016 30 845 24.95 -13.4 8 79 -16.3 2.7
22:00 1016 30 845 24.95 -12.8 9 75 -16.3 2.7
22:05 1016 30 845 24.95 -12.8 9 76 -16.2 2.9
22:10 1016 30 845 24.95 -13.1 8.4 76 -16.4 2.4
22:15 1016 30 845 24.95 -13.4 7.8 79 -16.3 2.6
22:20 1016 30 845 24.95 -13.4 8 79 -16.3 2.7
22:25 1016 30 845 24.95 -13.1 8.3 79 -16.1 3
22:30 1016 30 845 24.95 -12.7 9.1 77 -16 3.2
22:35 1016 30 846 24.98 -12.8 9 77 -16 3.2
22:40 1016 30 846 24.98 -13 8.7 77 -16.2 2.8
22:45 1017 30.03 846 24.98 -13.1 8.5 78 -16.2 2.8
22:50 1017 30.03 846 24.98 -12.8 9 76 -16.2 2.9
22:55 1017 30.03 846 24.98 -12.8 9 76 -16.1 2.9
23:00 1017 30.03 846 24.98 -13.1 8.5 77 -16.3 2.7
23:05 1017 30.03 846 24.98 -13.1 8.4 78 -16.2 2.8
23:10 1017 30.03 846 24.98 -12.9 8.9 75 -16.3 2.6
23:15 1017 30.03 846 24.98 -13.2 8.2 77 -16.4 2.5
23:20 1017 30.03 846 24.98 -13.3 8 78 -16.4 2.5
23:25 1017 30.03 846 24.98 -13 8.6 78 -16.1 3
23:30 1017 30.03 846 24.98 -12.5 9.5 76 -15.9 3.4
23:35 1017 30.03 846 24.98 -12.3 9.8 73 -16.2 2.9
23:40 1017 30.03 846 24.98 -12.2 10 74 -16 3.2
23:45 1017 30.03 846 24.98 -12.1 10.3 74 -15.8 3.5
23:50 1017 30.03 846 24.98 -12 10.4 72 -16.1 3
23:55 1017 30.03 846 24.98 -12.1 10.3 71 -16.2 2.8
24:00 1017 30.03 846 24.98 -12.3 9.8 73 -16.3 2.7